MMVA/VSA METAR and TAF weather

Enter ICAO airport designator
Station Type Date Time Source
MMVA METAR 2020/01/29 12:40 UTC NOAA

MMVA 291240Z 00000KT 3/4SM BR VV002 22/22 A2991 RMK 8////


Station Type Date Time Source
MMVA Decoded METAR 2020/01/29 12:40 UTC NOAA

Villahermosa , Mexico (MMVA) 18-00N 092-49W
Jan 29, 2020 - 07:40 AM EST / 2020.01.29 1240 UTC
Wind: Calm:0
Visibility: 3/4 mile(s):0
Sky conditions: obscured
Weather: mist
Temperature: 71 F (22 C)
Dew Point: 71 F (22 C)
Relative Humidity: 100%
Pressure (altimeter): 29.91 in. Hg (1012 hPa)
ob: MMVA 291240Z 00000KT 3/4SM BR VV002 22/22 A2991 RMK 8////
cycle: 12

Station Type Date Time Source
MMVA TAF 2020/01/29 06:58 UTC NOAA

TAF MMVA 290456Z 2906/3006 00000KT 6SM HZ SKC
FM291000 13004KT 4SM BR SCT010
TEMPO 2912/2915 1/2SM FG VV002
FM291600 14005KT 5SM HZ SCT015
FM291900 28008KT 6SM HZ SCT020
BECMG 3003/3005 32005KT

Example: see airport list